createdAt,value
2023-02-12T00:00:30.247Z,0.00
2023-02-12T00:01:30.218Z,0.00
2023-02-12T00:02:30.319Z,0.00
2023-02-12T00:03:30.203Z,0.00
2023-02-12T00:04:30.211Z,0.00
2023-02-12T00:05:30.140Z,0.00
2023-02-12T00:06:30.169Z,0.00
2023-02-12T00:07:30.126Z,0.00
2023-02-12T00:08:30.142Z,0.00
2023-02-12T00:09:30.115Z,0.00
2023-02-12T00:10:30.132Z,0.00
2023-02-12T00:11:30.120Z,0.00
2023-02-12T00:12:30.097Z,0.00
2023-02-12T00:13:30.033Z,0.00
2023-02-12T00:14:30.107Z,0.00
2023-02-12T00:15:30.083Z,0.00
2023-02-12T00:16:30.055Z,0.00
2023-02-12T00:17:29.995Z,0.00
2023-02-12T00:18:30.001Z,0.00
2023-02-12T00:19:29.955Z,0.00
2023-02-12T00:20:29.988Z,0.00
2023-02-12T00:21:29.966Z,0.00
2023-02-12T00:22:29.955Z,0.00
2023-02-12T00:23:29.918Z,0.00
2023-02-12T00:24:29.939Z,0.00
2023-02-12T00:25:29.887Z,0.00
2023-02-12T00:26:29.911Z,0.00
2023-02-12T00:27:29.857Z,0.00
2023-02-12T00:28:29.917Z,0.00
2023-02-12T00:29:29.828Z,0.00
2023-02-12T00:30:29.854Z,0.00
2023-02-12T00:31:29.888Z,0.00
2023-02-12T00:32:29.818Z,0.00
2023-02-12T00:33:29.779Z,0.00
2023-02-12T00:34:29.782Z,0.00
2023-02-12T00:35:29.745Z,0.00
2023-02-12T00:36:29.761Z,0.00
2023-02-12T00:37:29.742Z,0.00
2023-02-12T00:38:29.750Z,0.00
2023-02-12T00:39:29.694Z,0.00
2023-02-12T00:40:29.708Z,0.00
2023-02-12T00:41:29.696Z,0.00
2023-02-12T00:42:29.692Z,0.00
2023-02-12T00:43:29.637Z,0.00
2023-02-12T00:44:29.653Z,0.00
2023-02-12T00:45:29.620Z,0.00
2023-02-12T00:46:29.727Z,0.00
2023-02-12T00:47:29.583Z,0.00
2023-02-12T00:48:29.629Z,0.00
2023-02-12T00:49:29.560Z,0.00
2023-02-12T00:50:31.775Z,0.00
2023-02-12T00:51:29.534Z,0.00
2023-02-12T00:52:29.542Z,0.00
2023-02-12T00:53:29.522Z,0.00
2023-02-12T00:54:29.537Z,0.00
2023-02-12T00:55:29.503Z,0.00
2023-02-12T00:56:29.485Z,0.00
2023-02-12T00:57:29.460Z,0.00
2023-02-12T00:58:29.487Z,0.00
2023-02-12T00:59:29.460Z,0.00
2023-02-12T01:00:29.434Z,0.00
2023-02-12T01:01:29.515Z,0.00
2023-02-12T01:02:29.417Z,0.00
2023-02-12T01:03:29.396Z,0.00
2023-02-12T01:04:29.409Z,0.00
2023-02-12T01:05:29.347Z,0.00
2023-02-12T01:06:29.359Z,0.00
2023-02-12T01:07:29.314Z,0.00
2023-02-12T01:08:29.332Z,0.00
2023-02-12T01:09:29.313Z,0.00
2023-02-12T01:10:29.317Z,0.00
2023-02-12T01:11:29.323Z,0.00
2023-02-12T01:12:29.276Z,0.00
2023-02-12T01:13:29.251Z,0.00
2023-02-12T01:14:29.267Z,0.00
2023-02-12T01:15:29.215Z,0.00
2023-02-12T01:16:29.242Z,0.00
2023-02-12T01:17:29.214Z,0.00
2023-02-12T01:18:29.179Z,0.00
2023-02-12T01:19:29.201Z,0.00
2023-02-12T01:20:29.158Z,0.00
2023-02-12T01:21:29.364Z,0.00
2023-02-12T01:22:29.123Z,0.00
2023-02-12T01:23:29.150Z,0.00
2023-02-12T01:24:29.121Z,0.00
2023-02-12T01:25:29.105Z,0.00
2023-02-12T01:26:29.081Z,0.00
2023-02-12T01:27:29.146Z,0.00
2023-02-12T01:28:29.071Z,0.00
2023-02-12T01:29:29.077Z,0.00
2023-02-12T01:30:29.012Z,0.00
2023-02-12T01:31:29.176Z,0.00
2023-02-12T01:32:28.983Z,0.00
2023-02-12T01:33:28.997Z,0.00
2023-02-12T01:34:28.992Z,0.00
2023-02-12T01:35:28.975Z,0.00
2023-02-12T01:36:28.957Z,0.00
2023-02-12T01:37:28.952Z,0.00
2023-02-12T01:38:28.909Z,0.00
2023-02-12T01:39:28.933Z,0.00
2023-02-12T01:40:28.904Z,0.00
2023-02-12T01:41:28.915Z,0.00
2023-02-12T01:42:28.868Z,0.00
2023-02-12T01:43:28.882Z,0.00
2023-02-12T01:44:28.857Z,0.00
2023-02-12T01:45:28.897Z,0.00
2023-02-12T01:46:28.837Z,0.00
2023-02-12T01:47:28.828Z,0.00
2023-02-12T01:48:28.776Z,0.00
2023-02-12T01:49:28.821Z,0.00
2023-02-12T01:50:28.742Z,0.00
2023-02-12T01:51:28.819Z,0.00
2023-02-12T01:52:28.743Z,0.00
2023-02-12T01:53:28.734Z,0.00
2023-02-12T01:54:28.696Z,0.00
2023-02-12T01:55:28.725Z,0.00
2023-02-12T01:56:28.688Z,0.00
2023-02-12T01:57:28.708Z,0.00
2023-02-12T01:58:28.645Z,0.00
2023-02-12T01:59:28.649Z,0.00
2023-02-12T02:00:28.642Z,0.00
2023-02-12T02:01:28.673Z,0.00
2023-02-12T02:02:28.612Z,0.00
2023-02-12T02:03:28.645Z,0.00
2023-02-12T02:04:28.565Z,0.00
2023-02-12T02:05:28.588Z,0.00
2023-02-12T02:06:28.540Z,0.00
2023-02-12T02:07:28.577Z,0.00
2023-02-12T02:08:28.534Z,0.00
2023-02-12T02:09:28.529Z,0.00
2023-02-12T02:10:28.485Z,0.00
2023-02-12T02:11:28.511Z,0.00
2023-02-12T02:12:28.469Z,0.00
2023-02-12T02:13:28.484Z,0.00
2023-02-12T02:14:28.468Z,0.00
2023-02-12T02:15:28.430Z,0.00
2023-02-12T02:16:28.458Z,0.00
2023-02-12T02:17:28.414Z,0.00
2023-02-12T02:18:28.389Z,0.00
2023-02-12T02:19:28.401Z,0.00
2023-02-12T02:20:28.345Z,0.00
2023-02-12T02:21:28.360Z,0.00
2023-02-12T02:22:28.327Z,0.00
2023-02-12T02:23:28.348Z,0.00
2023-02-12T02:24:28.321Z,0.00
2023-02-12T02:25:28.337Z,0.00
2023-02-12T02:26:28.269Z,0.00
2023-02-12T02:27:28.270Z,0.00
2023-02-12T02:28:28.268Z,0.00
2023-02-12T02:29:28.248Z,0.00
2023-02-12T02:30:28.215Z,0.00
2023-02-12T02:31:28.375Z,0.00
2023-02-12T02:32:28.209Z,0.00
2023-02-12T02:33:28.205Z,0.00
2023-02-12T02:34:28.184Z,0.00
2023-02-12T02:35:28.145Z,0.00
2023-02-12T02:36:28.154Z,0.00
2023-02-12T02:37:28.133Z,0.00
2023-02-12T02:38:28.128Z,0.00
2023-02-12T02:39:28.098Z,0.00
2023-02-12T02:40:28.099Z,0.00
2023-02-12T02:41:28.074Z,0.00
2023-02-12T02:42:28.103Z,0.00
2023-02-12T02:43:28.060Z,0.00
2023-02-12T02:44:28.064Z,0.00
2023-02-12T02:45:28.060Z,0.00
2023-02-12T02:46:28.054Z,0.00
2023-02-12T02:47:27.985Z,0.00
2023-02-12T02:48:28.040Z,0.00
2023-02-12T02:49:27.966Z,0.00
2023-02-12T02:50:27.970Z,0.00
2023-02-12T02:51:27.940Z,0.00
2023-02-12T02:52:27.940Z,0.00
2023-02-12T02:53:27.950Z,0.00
2023-02-12T02:54:27.947Z,0.00
2023-02-12T02:55:27.884Z,0.00
2023-02-12T02:56:27.882Z,0.00
2023-02-12T02:57:27.852Z,0.00
2023-02-12T02:58:27.908Z,0.00
2023-02-12T02:59:27.827Z,0.00
2023-02-12T03:00:27.842Z,0.00
2023-02-12T03:01:27.806Z,0.00
2023-02-12T03:02:27.815Z,0.00
2023-02-12T03:03:27.790Z,0.00
2023-02-12T03:04:27.800Z,0.00
2023-02-12T03:05:27.752Z,0.00
2023-02-12T03:06:27.773Z,0.00
2023-02-12T03:07:27.708Z,0.00
2023-02-12T03:08:27.749Z,0.00
2023-02-12T03:09:27.691Z,0.00
2023-02-12T03:10:27.733Z,0.00
2023-02-12T03:11:27.703Z,0.00
2023-02-12T03:12:27.684Z,0.00
2023-02-12T03:13:27.679Z,0.00
2023-02-12T03:14:27.636Z,0.00
2023-02-12T03:15:27.601Z,0.00
2023-02-12T03:16:27.673Z,0.00
2023-02-12T03:17:27.592Z,0.00
2023-02-12T03:18:27.611Z,0.00
2023-02-12T03:19:27.592Z,0.00
2023-02-12T03:20:27.567Z,0.00
2023-02-12T03:21:27.526Z,0.00
2023-02-12T03:22:27.541Z,0.00
2023-02-12T03:23:27.539Z,0.00
2023-02-12T03:24:27.523Z,0.00
2023-02-12T03:25:27.485Z,0.00
2023-02-12T03:26:27.540Z,0.00
2023-02-12T03:27:27.444Z,0.00
2023-02-12T03:28:27.576Z,0.00
2023-02-12T03:29:27.443Z,0.00
2023-02-12T03:30:27.479Z,0.00
2023-02-12T03:31:27.507Z,0.00
2023-02-12T03:32:27.415Z,0.00
2023-02-12T03:33:27.460Z,0.00
2023-02-12T03:34:27.399Z,0.00
2023-02-12T03:35:27.376Z,0.00
2023-02-12T03:36:27.366Z,0.00
2023-02-12T03:37:27.353Z,0.00
2023-02-12T03:38:27.339Z,0.00
2023-02-12T03:39:27.302Z,0.00
2023-02-12T03:40:27.303Z,0.00
2023-02-12T03:41:27.290Z,0.00
2023-02-12T03:42:27.300Z,0.00
2023-02-12T03:43:27.261Z,0.00
2023-02-12T03:44:27.279Z,0.00
2023-02-12T03:45:27.338Z,0.00
2023-02-12T03:46:27.237Z,0.00
2023-02-12T03:47:27.229Z,0.00
2023-02-12T03:48:27.217Z,0.00
2023-02-12T03:49:27.159Z,0.00
2023-02-12T03:50:27.190Z,0.00
2023-02-12T03:51:27.140Z,0.00
2023-02-12T03:52:27.154Z,0.00
2023-02-12T03:53:27.172Z,0.00
2023-02-12T03:54:27.114Z,0.00
2023-02-12T03:55:27.085Z,0.00
2023-02-12T03:56:27.141Z,0.00
2023-02-12T03:57:27.053Z,0.00
2023-02-12T03:58:27.087Z,0.00
2023-02-12T03:59:27.052Z,0.00
2023-02-12T04:00:27.070Z,0.00
2023-02-12T04:01:27.133Z,0.00
2023-02-12T04:02:27.012Z,0.00
2023-02-12T04:03:27.004Z,0.00
2023-02-12T04:04:27.166Z,0.00
2023-02-12T04:05:26.950Z,0.00
2023-02-12T04:06:26.973Z,0.00
2023-02-12T04:07:26.935Z,0.00
2023-02-12T04:08:26.967Z,0.00
2023-02-12T04:09:26.916Z,0.00
2023-02-12T04:10:26.914Z,0.00
2023-02-12T04:11:26.859Z,0.00
2023-02-12T04:12:26.880Z,0.00
2023-02-12T04:13:26.851Z,0.00
2023-02-12T04:14:26.886Z,0.00
2023-02-12T04:15:26.807Z,0.00
2023-02-12T04:16:26.839Z,0.00
2023-02-12T04:17:26.782Z,0.00
2023-02-12T04:18:26.800Z,0.00
2023-02-12T04:19:26.775Z,0.00
2023-02-12T04:20:26.785Z,0.00
2023-02-12T04:21:26.763Z,0.00
2023-02-12T04:22:27.661Z,0.00
2023-02-12T04:23:26.711Z,0.00
2023-02-12T04:24:26.763Z,0.00
2023-02-12T04:25:26.709Z,0.00
2023-02-12T04:26:26.699Z,0.00
2023-02-12T04:27:26.659Z,0.00
2023-02-12T04:28:26.783Z,0.00
2023-02-12T04:29:26.628Z,0.00
2023-02-12T04:30:26.692Z,0.00
2023-02-12T04:31:26.900Z,0.00
2023-02-12T04:32:26.610Z,0.00
2023-02-12T04:33:26.568Z,0.00
2023-02-12T04:34:26.595Z,0.00
2023-02-12T04:35:26.543Z,0.00
2023-02-12T04:36:26.601Z,0.00
2023-02-12T04:37:26.526Z,0.00
2023-02-12T04:38:26.540Z,0.00
2023-02-12T04:39:26.506Z,0.00
2023-02-12T04:40:26.511Z,0.00
2023-02-12T04:41:26.496Z,0.00
2023-02-12T04:42:26.492Z,0.00
2023-02-12T04:43:26.469Z,0.00
2023-02-12T04:44:26.489Z,0.00
2023-02-12T04:45:26.439Z,0.00
2023-02-12T04:46:26.485Z,0.00
2023-02-12T04:47:26.401Z,0.00
2023-02-12T04:48:26.420Z,0.00
2023-02-12T04:49:26.403Z,0.00
2023-02-12T04:50:26.378Z,0.00
2023-02-12T04:51:26.350Z,0.00
2023-02-12T04:52:26.362Z,0.00
2023-02-12T04:53:26.344Z,0.00
2023-02-12T04:54:26.314Z,0.00
2023-02-12T04:55:26.313Z,0.00
2023-02-12T04:56:26.321Z,0.00
2023-02-12T04:57:26.284Z,0.00
2023-02-12T04:58:26.270Z,0.00
2023-02-12T04:59:26.226Z,0.00
2023-02-12T05:00:26.255Z,0.00
2023-02-12T05:01:26.297Z,0.00
2023-02-12T05:02:26.213Z,0.00
2023-02-12T05:03:26.178Z,0.00
2023-02-12T05:04:26.188Z,0.00
2023-02-12T05:05:26.205Z,0.00
2023-02-12T05:06:26.176Z,0.00
2023-02-12T05:07:26.123Z,0.00
2023-02-12T05:08:26.140Z,0.00
2023-02-12T05:09:26.123Z,0.00
2023-02-12T05:10:26.140Z,0.00
2023-02-12T05:11:26.078Z,0.00
2023-02-12T05:12:26.085Z,0.00
2023-02-12T05:13:26.045Z,0.00
2023-02-12T05:14:26.049Z,0.00
2023-02-12T05:15:26.049Z,0.00
2023-02-12T05:16:26.028Z,0.00
2023-02-12T05:17:26.019Z,0.00
2023-02-12T05:18:26.024Z,0.00
2023-02-12T05:19:25.972Z,0.00
2023-02-12T05:20:25.978Z,0.00
2023-02-12T05:21:25.938Z,0.00
2023-02-12T05:22:25.986Z,0.00
2023-02-12T05:23:25.921Z,0.00
2023-02-12T05:24:25.940Z,0.00
2023-02-12T05:25:25.875Z,0.00
2023-02-12T05:26:25.901Z,0.00
2023-02-12T05:27:25.881Z,0.00
2023-02-12T05:28:25.906Z,0.00
2023-02-12T05:29:25.849Z,0.00
2023-02-12T05:30:25.857Z,0.00
2023-02-12T05:31:25.954Z,0.00
2023-02-12T05:32:25.800Z,0.00
2023-02-12T05:33:25.854Z,0.00
2023-02-12T05:34:25.770Z,0.00
2023-02-12T05:35:25.803Z,0.00
2023-02-12T05:36:25.751Z,0.00
2023-02-12T05:37:25.748Z,0.00
2023-02-12T05:38:25.709Z,0.00
2023-02-12T05:39:25.725Z,0.00
2023-02-12T05:40:25.717Z,0.00
2023-02-12T05:41:25.718Z,0.00
2023-02-12T05:42:25.653Z,0.00
2023-02-12T05:43:25.719Z,0.00
2023-02-12T05:44:25.640Z,0.00
2023-02-12T05:45:25.639Z,0.00
2023-02-12T05:46:25.679Z,0.00
2023-02-12T05:47:25.623Z,0.00
2023-02-12T05:48:25.593Z,0.00
2023-02-12T05:49:25.609Z,0.00
2023-02-12T05:50:25.567Z,0.00
2023-02-12T05:51:25.558Z,0.00
2023-02-12T05:52:25.563Z,0.00
2023-02-12T05:53:25.536Z,0.00
2023-02-12T05:54:25.505Z,0.00
2023-02-12T05:55:25.521Z,0.00
2023-02-12T05:56:25.465Z,0.00
2023-02-12T05:57:25.509Z,0.00
2023-02-12T05:58:25.463Z,0.00
2023-02-12T05:59:25.476Z,0.00
2023-02-12T06:00:25.429Z,0.00
2023-02-12T06:01:25.423Z,0.00
2023-02-12T06:02:25.490Z,0.00
2023-02-12T06:03:25.454Z,0.00
2023-02-12T06:04:25.457Z,0.00
2023-02-12T06:05:25.384Z,0.00
2023-02-12T06:06:25.365Z,0.00
2023-02-12T06:07:25.352Z,0.00
2023-02-12T06:08:25.341Z,0.00
2023-02-12T06:09:25.319Z,0.00
2023-02-12T06:10:25.331Z,0.00
2023-02-12T06:11:25.303Z,0.00
2023-02-12T06:12:25.259Z,0.00
2023-02-12T06:13:25.277Z,0.00
2023-02-12T06:14:25.242Z,0.00
2023-02-12T06:15:25.296Z,0.00
2023-02-12T06:16:25.254Z,0.00
2023-02-12T06:17:25.212Z,0.00
2023-02-12T06:18:25.177Z,0.00
2023-02-12T06:19:25.228Z,0.00
2023-02-12T06:20:25.150Z,0.00
2023-02-12T06:21:25.185Z,0.00
2023-02-12T06:22:25.127Z,0.00
2023-02-12T06:23:25.127Z,0.00
2023-02-12T06:24:25.111Z,0.00
2023-02-12T06:25:25.132Z,0.00
2023-02-12T06:26:25.112Z,0.00
2023-02-12T06:27:25.082Z,0.00
2023-02-12T06:28:25.130Z,0.00
2023-02-12T06:29:25.061Z,0.00
2023-02-12T06:30:25.044Z,0.00
2023-02-12T06:31:25.184Z,4.00
2023-02-12T06:32:24.990Z,4.00
2023-02-12T06:33:25.063Z,0.00
2023-02-12T06:34:24.973Z,0.00
2023-02-12T06:35:24.985Z,0.00
2023-02-12T06:36:24.967Z,0.00
2023-02-12T06:37:24.991Z,4.00
2023-02-12T06:38:25.085Z,4.00
2023-02-12T06:39:24.934Z,0.00
2023-02-12T06:40:24.904Z,0.00
2023-02-12T06:41:24.900Z,4.00
2023-02-12T06:42:24.882Z,4.00
2023-02-12T06:43:24.884Z,4.00
2023-02-12T06:44:24.851Z,4.00
2023-02-12T06:45:24.866Z,4.00
2023-02-12T06:46:24.869Z,4.00
2023-02-12T06:47:24.822Z,4.00
2023-02-12T06:48:24.805Z,4.00
2023-02-12T06:49:24.797Z,4.00
2023-02-12T06:50:24.786Z,8.00
2023-02-12T06:51:24.771Z,8.00
2023-02-12T06:52:24.752Z,8.00
2023-02-12T06:53:24.739Z,8.00
2023-02-12T06:54:24.712Z,12.00
2023-02-12T06:55:24.783Z,12.00
2023-02-12T06:56:24.716Z,12.00
2023-02-12T06:57:24.687Z,12.00
2023-02-12T06:58:24.668Z,16.00
2023-02-12T06:59:24.689Z,16.00
2023-02-12T07:00:24.624Z,16.00
2023-02-12T07:01:24.628Z,16.00
2023-02-12T07:02:24.591Z,16.00
2023-02-12T07:03:24.625Z,16.00
2023-02-12T07:04:24.574Z,20.00
2023-02-12T07:05:24.588Z,20.00
2023-02-12T07:06:24.550Z,20.00
2023-02-12T07:07:24.547Z,20.00
2023-02-12T07:08:24.565Z,24.00
2023-02-12T07:09:24.539Z,24.00
2023-02-12T07:10:24.513Z,28.00
2023-02-12T07:11:24.533Z,28.00
2023-02-12T07:12:24.478Z,32.00
2023-02-12T07:13:24.490Z,32.00
2023-02-12T07:14:24.469Z,36.00
2023-02-12T07:15:24.452Z,36.00
2023-02-12T07:16:24.519Z,40.00
2023-02-12T07:17:24.423Z,44.00
2023-02-12T07:18:24.382Z,52.00
2023-02-12T07:19:24.440Z,52.00
2023-02-12T07:20:24.354Z,60.00
2023-02-12T07:21:24.427Z,64.00
2023-02-12T07:22:24.355Z,68.00
2023-02-12T07:23:24.350Z,76.00
2023-02-12T07:24:24.319Z,84.00
2023-02-12T07:25:24.332Z,96.00
2023-02-12T07:26:24.274Z,116.00
2023-02-12T07:27:24.302Z,132.00
2023-02-12T07:28:24.301Z,136.00
2023-02-12T07:29:24.264Z,132.00
2023-02-12T07:30:24.272Z,144.00
2023-02-12T07:31:24.458Z,152.00
2023-02-12T07:32:24.201Z,228.00
2023-02-12T07:33:24.214Z,200.00
2023-02-12T07:34:24.184Z,340.00
2023-02-12T07:35:24.199Z,296.00
2023-02-12T07:36:24.154Z,376.00
2023-02-12T07:37:24.166Z,588.00
2023-02-12T07:38:24.120Z,560.00
2023-02-12T07:39:24.150Z,536.00
2023-02-12T07:40:24.125Z,672.00
2023-02-12T07:41:24.115Z,516.00
2023-02-12T07:42:24.077Z,724.00
2023-02-12T07:43:24.072Z,496.00
2023-02-12T07:44:24.065Z,284.00
2023-02-12T07:45:24.155Z,292.00
2023-02-12T07:46:24.010Z,376.00
2023-02-12T07:47:24.051Z,472.00
2023-02-12T07:48:23.995Z,808.00
2023-02-12T07:49:24.016Z,772.00
2023-02-12T07:50:23.968Z,776.00
2023-02-12T07:51:23.979Z,792.00
2023-02-12T07:52:23.930Z,568.00
2023-02-12T07:53:23.958Z,712.00
2023-02-12T07:54:23.913Z,792.00
2023-02-12T07:55:23.924Z,808.00
2023-02-12T07:56:23.883Z,792.00
2023-02-12T07:57:23.894Z,760.00
2023-02-12T07:58:23.881Z,736.00
2023-02-12T07:59:23.891Z,724.00
2023-02-12T08:00:23.833Z,704.00
2023-02-12T08:01:23.858Z,688.00
2023-02-12T08:02:23.877Z,692.00
2023-02-12T08:03:23.838Z,700.00
2023-02-12T08:04:23.843Z,720.00
2023-02-12T08:05:23.798Z,728.00
2023-02-12T08:06:23.767Z,712.00
2023-02-12T08:07:23.767Z,716.00
2023-02-12T08:08:23.749Z,728.00
2023-02-12T08:09:23.753Z,756.00
2023-02-12T08:10:23.721Z,784.00
2023-02-12T08:11:23.721Z,812.00
2023-02-12T08:12:23.718Z,812.00
2023-02-12T08:13:23.687Z,836.00
2023-02-12T08:14:23.686Z,868.00
2023-02-12T08:15:23.652Z,900.00
2023-02-12T08:16:23.648Z,884.00
2023-02-12T08:17:23.644Z,884.00
2023-02-12T08:18:23.614Z,884.00
2023-02-12T08:19:26.427Z,904.00
2023-02-12T08:20:23.571Z,880.00
2023-02-12T08:21:23.589Z,900.00
2023-02-12T08:22:23.584Z,904.00
2023-02-12T08:23:23.576Z,908.00
2023-02-12T08:24:23.526Z,904.00
2023-02-12T08:25:23.560Z,984.00
2023-02-12T08:26:23.491Z,1064.00
2023-02-12T08:27:23.546Z,1060.00
2023-02-12T08:28:23.528Z,1016.00
2023-02-12T08:29:23.483Z,1120.00
2023-02-12T08:30:23.438Z,1180.00
2023-02-12T08:31:23.619Z,1216.00
2023-02-12T08:32:23.452Z,1252.00
2023-02-12T08:33:23.418Z,1304.00
2023-02-12T08:34:23.399Z,1324.00
2023-02-12T08:35:23.435Z,1352.00
2023-02-12T08:36:23.370Z,1308.00
2023-02-12T08:37:24.261Z,1420.00
2023-02-12T08:38:23.333Z,1396.00
2023-02-12T08:39:23.336Z,1416.00
2023-02-12T08:40:23.315Z,1348.00
2023-02-12T08:41:23.329Z,1408.00
2023-02-12T08:42:23.325Z,1312.00
2023-02-12T08:43:23.281Z,1344.00
2023-02-12T08:44:23.265Z,1300.00
2023-02-12T08:45:23.258Z,1292.00
2023-02-12T08:46:23.238Z,1300.00
2023-02-12T08:47:23.239Z,1284.00
2023-02-12T08:48:23.198Z,1328.00
2023-02-12T08:49:23.231Z,1316.00
2023-02-12T08:50:23.157Z,1356.00
2023-02-12T08:51:23.186Z,1400.00
2023-02-12T08:52:23.163Z,1420.00
2023-02-12T08:53:23.144Z,1424.00
2023-02-12T08:54:23.124Z,1440.00
2023-02-12T08:55:23.116Z,1452.00
2023-02-12T08:56:23.089Z,1488.00
2023-02-12T08:57:23.119Z,1504.00
2023-02-12T08:58:23.139Z,1516.00
2023-02-12T08:59:23.114Z,1524.00
2023-02-12T09:00:23.033Z,1508.00
2023-02-12T09:01:23.239Z,1552.00
2023-02-12T09:02:23.066Z,1588.00
2023-02-12T09:03:23.067Z,1572.00
2023-02-12T09:04:23.019Z,1540.00
2023-02-12T09:05:22.997Z,1600.00
2023-02-12T09:06:22.946Z,1552.00
2023-02-12T09:07:22.947Z,1672.00
2023-02-12T09:08:22.920Z,1724.00
2023-02-12T09:09:22.930Z,1796.00
2023-02-12T09:10:22.940Z,1868.00
2023-02-12T09:11:22.903Z,1596.00
2023-02-12T09:12:22.852Z,2020.00
2023-02-12T09:13:22.876Z,1572.00
2023-02-12T09:14:22.826Z,1520.00
2023-02-12T09:15:22.878Z,1304.00
2023-02-12T09:16:22.876Z,1024.00
2023-02-12T09:17:22.826Z,1136.00
2023-02-12T09:18:22.782Z,1172.00
2023-02-12T09:19:22.806Z,2036.00
2023-02-12T09:20:22.782Z,1224.00
2023-02-12T09:21:22.781Z,2056.00
2023-02-12T09:22:22.726Z,1844.00
2023-02-12T09:23:22.753Z,1496.00
2023-02-12T09:24:22.708Z,2012.00
2023-02-12T09:25:22.747Z,2048.00
2023-02-12T09:26:22.679Z,2048.00
2023-02-12T09:27:22.719Z,1988.00
2023-02-12T09:28:22.785Z,1796.00
2023-02-12T09:29:22.665Z,1996.00
2023-02-12T09:30:22.631Z,2276.00
2023-02-12T09:31:22.812Z,1976.00
2023-02-12T09:32:22.605Z,1892.00
2023-02-12T09:33:22.636Z,2044.00
2023-02-12T09:34:22.572Z,2028.00
2023-02-12T09:35:22.599Z,2172.00
2023-02-12T09:36:22.588Z,2196.00
2023-02-12T09:37:22.588Z,2488.00
2023-02-12T09:38:22.675Z,2468.00
2023-02-12T09:39:22.552Z,2624.00
2023-02-12T09:40:22.488Z,3228.00
2023-02-12T09:41:22.510Z,3692.00
2023-02-12T09:42:22.463Z,3808.00
2023-02-12T09:43:22.507Z,3944.00
2023-02-12T09:44:22.446Z,5320.00
2023-02-12T09:45:22.465Z,5592.00
2023-02-12T09:46:22.439Z,5616.00
2023-02-12T09:47:22.439Z,6020.00
2023-02-12T09:48:22.427Z,5936.00
2023-02-12T09:49:22.377Z,6608.00
2023-02-12T09:50:22.380Z,11668.00
2023-02-12T09:51:22.345Z,9516.00
2023-02-12T09:52:22.388Z,8292.00
2023-02-12T09:53:22.340Z,8656.00
2023-02-12T09:54:22.347Z,10420.00
2023-02-12T09:55:22.290Z,10928.00
2023-02-12T09:56:22.331Z,10056.00
2023-02-12T09:57:22.268Z,10684.00
2023-02-12T09:58:22.302Z,8356.00
2023-02-12T09:59:22.272Z,5884.00
2023-02-12T10:00:22.295Z,6116.00
2023-02-12T10:01:22.252Z,8200.00
2023-02-12T10:02:22.230Z,8744.00
2023-02-12T10:03:22.195Z,9972.00
2023-02-12T10:04:22.282Z,9788.00
2023-02-12T10:05:22.183Z,8188.00
2023-02-12T10:06:22.168Z,6556.00
2023-02-12T10:07:22.136Z,6396.00
2023-02-12T10:08:24.611Z,7852.00
2023-02-12T10:09:22.100Z,8840.00
2023-02-12T10:10:22.110Z,6996.00
2023-02-12T10:11:22.113Z,11516.00
2023-02-12T10:12:22.098Z,8292.00
2023-02-12T10:13:22.073Z,13632.00
2023-02-12T10:14:22.065Z,13408.00
2023-02-12T10:15:22.041Z,13536.00
2023-02-12T10:16:22.102Z,12608.00
2023-02-12T10:17:22.043Z,3604.00
2023-02-12T10:18:22.069Z,5460.00
2023-02-12T10:19:22.015Z,1540.00
2023-02-12T10:20:21.994Z,12512.00
2023-02-12T10:21:22.002Z,864.00
2023-02-12T10:22:21.975Z,920.00
2023-02-12T10:23:21.923Z,12224.00
2023-02-12T10:24:21.955Z,916.00
2023-02-12T10:25:21.924Z,1224.00
2023-02-12T10:26:21.932Z,464.00
2023-02-12T10:27:21.891Z,704.00
2023-02-12T10:28:21.956Z,664.00
2023-02-12T10:29:21.867Z,2976.00
2023-02-12T10:30:21.877Z,1140.00
2023-02-12T10:31:21.910Z,748.00
2023-02-12T10:32:21.847Z,1164.00
2023-02-12T10:33:21.784Z,616.00
2023-02-12T10:34:21.803Z,740.00
2023-02-12T10:35:21.804Z,1976.00
2023-02-12T10:36:21.774Z,904.00
2023-02-12T10:37:21.761Z,968.00
2023-02-12T10:38:21.739Z,1264.00
2023-02-12T10:39:21.693Z,1368.00
2023-02-12T10:40:21.719Z,1324.00
2023-02-12T10:41:21.702Z,1384.00
2023-02-12T10:42:21.709Z,836.00
2023-02-12T10:43:21.662Z,1060.00
2023-02-12T10:44:21.675Z,1116.00
2023-02-12T10:45:21.623Z,760.00
2023-02-12T10:46:21.703Z,728.00
2023-02-12T10:47:21.666Z,680.00
2023-02-12T10:48:21.630Z,588.00
2023-02-12T10:49:21.568Z,620.00
2023-02-12T10:50:21.572Z,604.00
2023-02-12T10:51:21.548Z,580.00
2023-02-12T10:52:21.558Z,648.00
2023-02-12T10:53:21.578Z,572.00
2023-02-12T10:54:21.521Z,620.00
2023-02-12T10:55:21.474Z,680.00
2023-02-12T10:56:21.511Z,780.00
2023-02-12T10:57:21.487Z,784.00
2023-02-12T10:58:21.509Z,732.00
2023-02-12T10:59:21.427Z,760.00
2023-02-12T11:00:21.469Z,736.00
2023-02-12T11:01:21.446Z,688.00
2023-02-12T11:02:21.427Z,720.00
2023-02-12T11:03:21.385Z,736.00
2023-02-12T11:04:21.388Z,712.00
2023-02-12T11:05:21.379Z,592.00
2023-02-12T11:06:21.374Z,608.00
2023-02-12T11:07:21.326Z,640.00
2023-02-12T11:08:21.332Z,648.00
2023-02-12T11:09:21.319Z,592.00
2023-02-12T11:10:21.362Z,656.00
2023-02-12T11:11:21.294Z,680.00
2023-02-12T11:12:21.332Z,612.00
2023-02-12T11:13:21.244Z,692.00
2023-02-12T11:14:21.289Z,672.00
2023-02-12T11:15:21.212Z,644.00
2023-02-12T11:16:21.316Z,684.00
2023-02-12T11:17:21.199Z,688.00
2023-02-12T11:18:21.195Z,636.00
2023-02-12T11:19:21.166Z,572.00
2023-02-12T11:20:21.308Z,616.00
2023-02-12T11:21:21.157Z,624.00
2023-02-12T11:22:21.154Z,620.00
2023-02-12T11:23:21.136Z,584.00
2023-02-12T11:24:21.145Z,616.00
2023-02-12T11:25:21.106Z,612.00
2023-02-12T11:26:21.114Z,564.00
2023-02-12T11:27:21.093Z,568.00
2023-02-12T11:28:21.239Z,556.00
2023-02-12T11:29:21.042Z,568.00
2023-02-12T11:30:21.257Z,508.00
2023-02-12T11:31:21.214Z,556.00
2023-02-12T11:32:21.049Z,508.00
2023-02-12T11:33:20.990Z,460.00
2023-02-12T11:34:20.970Z,496.00
2023-02-12T11:35:20.950Z,484.00
2023-02-12T11:36:20.978Z,480.00
2023-02-12T11:37:20.974Z,460.00
2023-02-12T11:38:21.348Z,496.00
2023-02-12T11:39:20.888Z,500.00
2023-02-12T11:40:20.912Z,528.00
2023-02-12T11:41:20.856Z,504.00
2023-02-12T11:42:20.865Z,528.00
2023-02-12T11:43:20.878Z,472.00
2023-02-12T11:44:20.847Z,488.00
2023-02-12T11:45:20.827Z,452.00
2023-02-12T11:46:20.921Z,436.00
2023-02-12T11:47:20.832Z,464.00
2023-02-12T11:48:20.802Z,432.00
2023-02-12T11:49:20.765Z,420.00
2023-02-12T11:50:20.764Z,440.00
2023-02-12T11:51:20.736Z,388.00
2023-02-12T11:52:20.843Z,400.00
2023-02-12T11:53:20.698Z,416.00
2023-02-12T11:54:20.720Z,380.00
2023-02-12T11:55:20.677Z,380.00
2023-02-12T11:56:20.697Z,372.00
2023-02-12T11:57:20.671Z,360.00
2023-02-12T11:58:20.683Z,340.00
2023-02-12T11:59:20.635Z,356.00
2023-02-12T12:00:20.704Z,348.00
2023-02-12T12:01:20.594Z,316.00
2023-02-12T12:02:20.642Z,316.00
2023-02-12T12:03:20.651Z,304.00
2023-02-12T12:04:20.565Z,340.00
2023-02-12T12:05:20.543Z,308.00
2023-02-12T12:06:20.539Z,324.00
2023-02-12T12:07:20.515Z,352.00
2023-02-12T12:08:20.563Z,336.00
2023-02-12T12:09:20.497Z,324.00
2023-02-12T12:10:20.505Z,320.00
2023-02-12T12:11:20.464Z,308.00
2023-02-12T12:12:20.486Z,288.00
2023-02-12T12:13:20.446Z,280.00
2023-02-12T12:14:20.480Z,272.00
2023-02-12T12:15:20.406Z,268.00
2023-02-12T12:16:20.441Z,264.00
2023-02-12T12:17:20.370Z,260.00
2023-02-12T12:18:20.394Z,264.00
2023-02-12T12:19:20.376Z,252.00
2023-02-12T12:20:20.359Z,244.00
2023-02-12T12:21:20.412Z,244.00
2023-02-12T12:22:20.341Z,240.00
2023-02-12T12:23:20.303Z,236.00
2023-02-12T12:24:20.322Z,236.00
2023-02-12T12:25:20.312Z,236.00
2023-02-12T12:26:20.318Z,228.00
2023-02-12T12:27:20.253Z,220.00
2023-02-12T12:28:20.295Z,216.00
2023-02-12T12:29:20.213Z,220.00
2023-02-12T12:30:20.232Z,220.00
2023-02-12T12:31:20.283Z,216.00
2023-02-12T12:32:20.237Z,212.00
2023-02-12T12:33:20.168Z,212.00
2023-02-12T12:34:20.205Z,208.00
2023-02-12T12:35:20.168Z,204.00
2023-02-12T12:36:20.159Z,208.00
2023-02-12T12:37:20.136Z,204.00
2023-02-12T12:38:20.118Z,208.00
2023-02-12T12:39:20.092Z,200.00
2023-02-12T12:40:20.116Z,196.00
2023-02-12T12:41:20.054Z,192.00
2023-02-12T12:42:20.076Z,192.00
2023-02-12T12:43:20.033Z,192.00
2023-02-12T12:44:20.049Z,188.00
2023-02-12T12:45:20.012Z,188.00
2023-02-12T12:46:20.056Z,184.00
2023-02-12T12:47:20.026Z,184.00
2023-02-12T12:48:19.997Z,188.00
2023-02-12T12:49:20.047Z,184.00
2023-02-12T12:50:19.969Z,180.00
2023-02-12T12:51:19.945Z,180.00